Time,TemperatureF,DewpointF,PressureIn,WindDirection,WindDirectionDegrees,WindSpeedMPH,WindSpeedGustMPH,Humidity,HourlyPrecipIn,Conditions,Clouds,dailyrainin,SoftwareType,DateUTC
2013-03-10 00:03:00,49.4,38.0,30.19,West,266,0.0,0.0,64,0.00,,,0.00,weatherlink.com 1.10,2013-03-10 05:03:00,
2013-03-10 00:18:00,48.8,37.0,30.18,West,266,0.0,0.0,64,0.00,,,0.00,weatherlink.com 1.10,2013-03-10 05:18:00,
2013-03-10 00:33:00,48.4,37.0,30.19,West,266,0.0,0.0,66,0.00,,,0.00,weatherlink.com 1.10,2013-03-10 05:33:00,
2013-03-10 00:48:00,48.4,38.0,30.18,West,266,0.0,0.0,67,0.00,,,0.00,weatherlink.com 1.10,2013-03-10 05:48:00,
2013-03-10 01:03:00,48.5,39.0,30.18,West,266,0.0,0.0,69,0.00,,,0.00,weatherlink.com 1.10,2013-03-10 06:03:00,
2013-03-10 01:18:00,48.7,39.0,30.18,West,266,0.0,0.0,70,0.00,,,0.00,weatherlink.com 1.10,2013-03-10 06:18:00,
2013-03-10 01:33:00,49.4,39.0,30.17,West,265,0.0,1.0,68,0.00,,,0.00,weatherlink.com 1.10,2013-03-10 06:33:00,
2013-03-10 01:48:00,50.4,38.0,30.17,SE,137,0.0,1.0,63,0.00,,,0.00,weatherlink.com 1.10,2013-03-10 06:48:00,
2013-03-10 03:03:00,50.4,38.0,30.16,SE,136,0.0,0.0,62,0.00,,,0.00,weatherlink.com 1.10,2013-03-10 07:03:00,
2013-03-10 03:18:00,50.8,38.0,30.16,NW,319,0.0,1.0,61,0.00,,,0.00,weatherlink.com 1.10,2013-03-10 07:18:00,
2013-03-10 03:34:00,50.9,38.0,30.16,ENE,69,0.0,1.0,61,0.00,,,0.00,weatherlink.com 1.10,2013-03-10 07:34:00,
2013-03-10 03:49:00,50.8,37.0,30.14,East,86,1.0,1.0,60,0.00,,,0.00,weatherlink.com 1.10,2013-03-10 07:49:00,
2013-03-10 04:04:00,50.7,37.0,30.13,East,98,1.0,2.0,60,0.00,,,0.00,weatherlink.com 1.10,2013-03-10 08:04:00,
2013-03-10 04:19:00,50.7,38.0,30.14,SW,221,0.0,2.0,61,0.00,,,0.00,weatherlink.com 1.10,2013-03-10 08:19:00,
2013-03-10 04:34:00,50.4,38.0,30.14,NNE,22,0.0,1.0,62,0.00,,,0.00,weatherlink.com 1.10,2013-03-10 08:34:00,
2013-03-10 04:49:00,50.5,38.0,30.14,SE,132,1.0,2.0,62,0.00,,,0.00,weatherlink.com 1.10,2013-03-10 08:49:00,
2013-03-10 05:04:00,50.5,38.0,30.14,ESE,117,0.0,2.0,62,0.00,,,0.00,weatherlink.com 1.10,2013-03-10 09:04:00,
2013-03-10 05:19:00,50.3,38.0,30.14,SE,134,1.0,2.0,63,0.00,,,0.00,weatherlink.com 1.10,2013-03-10 09:19:00,
2013-03-10 05:34:00,50.0,38.0,30.15,SSW,207,0.0,1.0,63,0.00,,,0.00,weatherlink.com 1.10,2013-03-10 09:34:00,
2013-03-10 05:49:00,49.6,38.0,30.16,SSW,208,0.0,0.0,65,0.00,,,0.00,weatherlink.com 1.10,2013-03-10 09:49:00,
2013-03-10 06:06:00,48.9,39.0,30.16,SSW,207,0.0,1.0,68,0.00,,,0.00,weatherlink.com 1.10,2013-03-10 10:06:00,
2013-03-10 06:19:00,48.4,39.0,30.17,SSW,207,0.0,1.0,69,0.00,,,0.00,weatherlink.com 1.10,2013-03-10 10:19:00,
2013-03-10 06:34:00,48.0,39.0,30.17,SSW,207,0.0,0.0,71,0.00,,,0.00,weatherlink.com 1.10,2013-03-10 10:34:00,
2013-03-10 06:49:00,47.6,38.0,30.18,SSW,207,0.0,0.0,70,0.00,,,0.00,weatherlink.com 1.10,2013-03-10 10:49:00,
2013-03-10 07:04:00,47.3,39.0,30.18,SSW,207,0.0,0.0,73,0.00,,,0.00,weatherlink.com 1.10,2013-03-10 11:04:00,
2013-03-10 07:19:00,47.0,39.0,30.18,SSW,207,0.0,0.0,74,0.00,,,0.00,weatherlink.com 1.10,2013-03-10 11:19:00,
2013-03-10 07:34:00,46.8,39.0,30.19,SSW,207,0.0,0.0,75,0.00,,,0.00,weatherlink.com 1.10,2013-03-10 11:34:00,
2013-03-10 07:49:00,46.7,39.0,30.19,SSW,207,0.0,0.0,75,0.00,,,0.00,weatherlink.com 1.10,2013-03-10 11:49:00,
2013-03-10 08:04:00,46.6,39.0,30.20,SSW,207,0.0,0.0,76,0.00,,,0.00,weatherlink.com 1.10,2013-03-10 12:04:00,
2013-03-10 08:19:00,47.1,40.0,30.20,SSW,207,0.0,0.0,76,0.00,,,0.00,weatherlink.com 1.10,2013-03-10 12:19:00,
2013-03-10 08:34:00,47.7,39.0,30.19,SSW,207,0.0,1.0,73,0.00,,,0.00,weatherlink.com 1.10,2013-03-10 12:34:00,
2013-03-10 08:49:00,47.9,39.0,30.19,SSW,207,0.0,1.0,72,0.00,,,0.00,weatherlink.com 1.10,2013-03-10 12:49:00,
2013-03-10 09:04:00,48.7,39.0,30.19,SE,131,0.0,1.0,70,0.00,,,0.00,weatherlink.com 1.10,2013-03-10 13:04:00,
2013-03-10 09:19:00,49.7,39.0,30.19,East,98,1.0,1.0,68,0.00,,,0.00,weatherlink.com 1.10,2013-03-10 13:19:00,
2013-03-10 09:34:00,50.8,40.0,30.19,NNE,29,0.0,2.0,66,0.00,,,0.00,weatherlink.com 1.10,2013-03-10 13:34:00,
2013-03-10 09:49:00,51.3,40.0,30.19,SE,139,0.0,2.0,65,0.00,,,0.00,weatherlink.com 1.10,2013-03-10 13:49:00,
2013-03-10 10:04:00,50.9,40.0,30.19,ESE,110,1.0,1.0,67,0.00,,,0.00,weatherlink.com 1.10,2013-03-10 14:04:00,
2013-03-10 10:19:00,50.8,40.0,30.18,East,81,0.0,1.0,67,0.00,,,0.00,weatherlink.com 1.10,2013-03-10 14:19:00,
2013-03-10 10:34:00,51.3,41.0,30.19,SW,214,0.0,1.0,68,0.00,,,0.00,weatherlink.com 1.10,2013-03-10 14:34:00,
2013-03-10 10:49:00,52.6,42.0,30.18,SW,214,0.0,1.0,67,0.00,,,0.00,weatherlink.com 1.10,2013-03-10 14:49:00,
2013-03-10 11:04:00,54.6,42.0,30.18,SSE,149,2.0,2.0,63,0.00,,,0.00,weatherlink.com 1.10,2013-03-10 15:04:00,
2013-03-10 11:19:00,56.2,42.0,30.18,ESE,121,1.0,2.0,60,0.00,,,0.00,weatherlink.com 1.10,2013-03-10 15:19:00,
2013-03-10 11:34:00,58.1,43.0,30.17,SSE,159,1.0,2.0,57,0.00,,,0.00,weatherlink.com 1.10,2013-03-10 15:34:00,
2013-03-10 11:49:00,61.1,42.0,30.18,ESE,111,2.0,6.0,50,0.00,,,0.00,weatherlink.com 1.10,2013-03-10 15:49:00,
2013-03-10 12:04:00,63.2,42.0,30.18,East,101,1.0,3.0,47,0.00,,,0.00,weatherlink.com 1.10,2013-03-10 16:04:00,
2013-03-10 12:19:00,65.0,42.0,30.18,NE,40,2.0,3.0,44,0.00,,,0.00,weatherlink.com 1.10,2013-03-10 16:19:00,
2013-03-10 12:34:00,65.6,43.0,30.17,ESE,123,1.0,4.0,44,0.00,,,0.00,weatherlink.com 1.10,2013-03-10 16:34:00,
2013-03-10 12:49:00,66.1,43.0,30.16,SE,125,2.0,3.0,43,0.00,,,0.00,weatherlink.com 1.10,2013-03-10 16:49:00,
2013-03-10 13:05:00,68.5,39.0,30.15,SW,232,5.0,5.0,34,0.00,,,0.00,weatherlink.com 1.10,2013-03-10 17:05:00,
2013-03-10 13:20:00,68.3,37.0,30.14,SE,135,3.0,5.0,32,0.00,,,0.00,weatherlink.com 1.10,2013-03-10 17:20:00,
2013-03-10 13:35:00,68.5,37.0,30.14,SSW,204,1.0,3.0,32,0.00,,,0.00,weatherlink.com 1.10,2013-03-10 17:35:00,
2013-03-10 13:50:00,68.6,38.0,30.14,East,98,2.0,5.0,33,0.00,,,0.00,weatherlink.com 1.10,2013-03-10 17:50:00,
2013-03-10 14:05:00,69.6,38.0,30.14,East,86,4.0,4.0,32,0.00,,,0.00,weatherlink.com 1.10,2013-03-10 18:05:00,
2013-03-10 14:20:00,69.4,39.0,30.12,SSE,155,1.0,4.0,33,0.00,,,0.00,weatherlink.com 1.10,2013-03-10 18:20:00,
2013-03-10 14:35:00,70.2,38.0,30.11,ESE,112,3.0,7.0,31,0.00,,,0.00,weatherlink.com 1.10,2013-03-10 18:35:00,
2013-03-10 14:50:00,69.9,40.0,30.11,SE,129,1.0,4.0,34,0.00,,,0.00,weatherlink.com 1.10,2013-03-10 18:50:00,
2013-03-10 15:05:00,70.5,40.0,30.10,East,86,2.0,4.0,33,0.00,,,0.00,weatherlink.com 1.10,2013-03-10 19:05:00,
2013-03-10 15:20:00,70.9,40.0,30.10,South,188,1.0,6.0,32,0.00,,,0.00,weatherlink.com 1.10,2013-03-10 19:20:00,
2013-03-10 15:35:00,71.0,41.0,30.10,NNW,335,2.0,3.0,34,0.00,,,0.00,weatherlink.com 1.10,2013-03-10 19:35:00,
2013-03-10 15:50:00,71.3,42.0,30.10,ESE,109,2.0,4.0,35,0.00,,,0.00,weatherlink.com 1.10,2013-03-10 19:50:00,
2013-03-10 16:05:00,70.7,41.0,30.10,SSW,212,2.0,4.0,34,0.00,,,0.00,weatherlink.com 1.10,2013-03-10 20:05:00,
2013-03-10 16:20:00,69.4,42.0,30.09,East,90,0.0,4.0,37,0.00,,,0.00,weatherlink.com 1.10,2013-03-10 20:20:00,
2013-03-10 16:35:00,69.7,43.0,30.08,SE,139,2.0,3.0,38,0.00,,,0.00,weatherlink.com 1.10,2013-03-10 20:35:00,
2013-03-10 16:50:00,70.6,43.0,30.07,SW,222,2.0,3.0,37,0.00,,,0.00,weatherlink.com 1.10,2013-03-10 20:50:00,
2013-03-10 17:05:00,70.1,44.0,30.07,West,278,1.0,3.0,39,0.00,,,0.00,weatherlink.com 1.10,2013-03-10 21:05:00,
2013-03-10 17:20:00,70.3,44.0,30.07,SE,136,0.0,3.0,39,0.00,,,0.00,weatherlink.com 1.10,2013-03-10 21:20:00,
2013-03-10 17:35:00,70.1,43.0,30.06,SSE,160,0.0,2.0,38,0.00,,,0.00,weatherlink.com 1.10,2013-03-10 21:35:00,
2013-03-10 17:50:00,70.0,44.0,30.06,SE,136,1.0,2.0,39,0.00,,,0.00,weatherlink.com 1.10,2013-03-10 21:50:00,
2013-03-10 18:05:00,69.3,44.0,30.06,SE,131,0.0,2.0,40,0.00,,,0.00,weatherlink.com 1.10,2013-03-10 22:05:00,
2013-03-10 18:20:00,68.2,43.0,30.06,ESE,119,0.0,1.0,41,0.00,,,0.00,weatherlink.com 1.10,2013-03-10 22:20:00,
2013-03-10 18:35:00,67.9,44.0,30.06,ESE,112,0.0,1.0,42,0.00,,,0.00,weatherlink.com 1.10,2013-03-10 22:35:00,
2013-03-10 18:50:00,67.5,45.0,30.06,ESE,112,0.0,1.0,44,0.00,,,0.00,weatherlink.com 1.10,2013-03-10 22:50:00,
2013-03-10 19:05:00,67.3,46.0,30.06,ESE,112,0.0,1.0,46,0.00,,,0.00,weatherlink.com 1.10,2013-03-10 23:05:00,
2013-03-10 19:20:00,66.9,45.0,30.06,ESE,111,0.0,1.0,46,0.00,,,0.00,weatherlink.com 1.10,2013-03-10 23:20:00,
2013-03-10 19:35:00,65.5,45.0,30.05,ESE,113,0.0,0.0,48,0.00,,,0.00,weatherlink.com 1.10,2013-03-10 23:35:00,
2013-03-10 19:50:00,63.5,45.0,30.05,ESE,113,0.0,1.0,51,0.00,,,0.00,weatherlink.com 1.10,2013-03-10 23:50:00,
2013-03-10 20:05:00,61.6,44.0,30.05,ESE,113,0.0,0.0,53,0.00,,,0.00,weatherlink.com 1.10,2013-03-11 00:05:00,
2013-03-10 20:20:00,59.6,45.0,30.05,ESE,113,0.0,0.0,58,0.00,,,0.00,weatherlink.com 1.10,2013-03-11 00:20:00,
2013-03-10 20:35:00,58.2,44.0,30.05,ESE,113,0.0,0.0,60,0.00,,,0.00,weatherlink.com 1.10,2013-03-11 00:35:00,
2013-03-10 20:50:00,57.0,44.0,30.05,ESE,113,0.0,0.0,63,0.00,,,0.00,weatherlink.com 1.10,2013-03-11 00:50:00,
2013-03-10 21:05:00,56.1,45.0,30.05,ESE,113,0.0,0.0,66,0.00,,,0.00,weatherlink.com 1.10,2013-03-11 01:05:00,
2013-03-10 21:20:00,55.6,44.0,30.05,ESE,113,0.0,0.0,66,0.00,,,0.00,weatherlink.com 1.10,2013-03-11 01:20:00,
2013-03-10 21:35:00,54.7,45.0,30.06,ESE,113,0.0,0.0,69,0.00,,,0.00,weatherlink.com 1.10,2013-03-11 01:35:00,
2013-03-10 21:50:00,54.6,45.0,30.06,ESE,113,0.0,0.0,70,0.00,,,0.00,weatherlink.com 1.10,2013-03-11 01:50:00,
2013-03-10 22:05:00,54.2,45.0,30.06,ESE,113,0.0,1.0,72,0.00,,,0.00,weatherlink.com 1.10,2013-03-11 02:05:00,
2013-03-10 22:20:00,54.0,46.0,30.05,ESE,113,0.0,1.0,73,0.00,,,0.00,weatherlink.com 1.10,2013-03-11 02:20:00,
2013-03-10 22:35:00,53.9,47.0,30.05,ESE,113,0.0,1.0,76,0.00,,,0.00,weatherlink.com 1.10,2013-03-11 02:35:00,
2013-03-10 22:50:00,54.2,47.0,30.06,ESE,113,0.0,1.0,76,0.00,,,0.00,weatherlink.com 1.10,2013-03-11 02:50:00,
2013-03-10 23:05:00,54.6,48.0,30.06,ESE,113,0.0,1.0,77,0.00,,,0.00,weatherlink.com 1.10,2013-03-11 03:05:00,
2013-03-10 23:20:00,55.5,48.0,30.06,ESE,108,1.0,2.0,77,0.00,,,0.00,weatherlink.com 1.10,2013-03-11 03:20:00,
2013-03-10 23:35:00,56.7,49.0,30.05,SE,124,1.0,2.0,76,0.00,,,0.00,weatherlink.com 1.10,2013-03-11 03:35:00,
2013-03-10 23:50:00,56.7,49.0,30.07,SE,134,1.0,2.0,76,0.00,,,0.00,weatherlink.com 1.10,2013-03-11 03:50:00,